Weather reports worldwide

Advertisment
Puebla De D. Rodrigo, Spain (8271): temperature & dewpoint: 10.07.2018 18:00:00 - 16.07.2018 18:00:00 (CEST)Puebla De D. Rodrigo, Spain (8271): wind speed & gusts: 10.07.2018 18:00:00 - 16.07.2018 18:00:00 (CEST)Puebla De D. Rodrigo, Spain (8271): wind direction: 10.07.2018 18:00:00 - 16.07.2018 18:00:00 (CEST)Puebla De D. Rodrigo, Spain (8271): reduced air pressure: 10.07.2018 18:00:00 - 16.07.2018 18:00:00 (CEST)Puebla De D. Rodrigo, Spain (8271): precipitation: 10.07.2018 18:00:00 - 16.07.2018 18:00:00 (CEST)
Date & Time tt [°C] td [°C] ff [km/h] ff [kn] fx [km/h] fx [kn] dd ppp [hPa] rr [mm]
16.07.2018 18:00:00 - - - - - - - - -
16.07.2018 17:00:00 31,3 11,7 4 2 26 14 W 1008,3 0,0
16.07.2018 16:00:00 29,1 11,2 6 4 23 13 S 1008,6 0,0
16.07.2018 15:00:00 28,7 12,1 1 0 20 11 NNW 1008,6 0,0
16.07.2018 14:00:00 27,6 12,7 6 3 19 10 S 1008,9 -
16.07.2018 13:00:00 26,2 12,6 4 2 19 11 NNW 1009,1 0,0
16.07.2018 12:00:00 26,3 13,8 6 4 21 11 W 1009,0 0,0
16.07.2018 11:00:00 22,6 13,4 5 3 18 10 WNW 1009,7 0,0
16.07.2018 10:00:00 - - 6 4 15 8 WSW - 0,0
16.07.2018 09:00:00 18,5 15,2 5 3 11 6 W 1010,6 0,0
16.07.2018 08:00:00 15,8 13,9 5 3 10 5 SW 1011,1 -
16.07.2018 07:00:00 - - 6 3 16 8 W - 0,0
16.07.2018 06:00:00 - - 1 0 12 7 SE - 0,0
16.07.2018 05:00:00 16,0 11,8 4 2 8 4 SW 1011,1 0,0
16.07.2018 04:00:00 17,1 11,6 1 1 11 6 SSE 1010,9 0,0
16.07.2018 03:00:00 17,8 11,6 1 0 14 8 S 1010,8 0,0
16.07.2018 02:00:00 18,8 12,1 5 3 15 8 W 1010,5 -
16.07.2018 01:00:00 19,7 11,7 9 5 17 9 WSW 1010,3 0,0
16.07.2018 00:00:00 20,3 9,8 7 4 21 11 WSW 1010,3 0,0
15.07.2018 23:00:00 20,6 8,9 4 2 10 5 WSW 1010,2 0,0
15.07.2018 22:00:00 - - 5 3 23 12 W - 0,0
15.07.2018 21:00:00 23,2 10,3 8 5 23 12 W 1009,7 0,0
15.07.2018 20:00:00 25,1 11,7 8 4 27 15 W 1009,4 -
15.07.2018 19:00:00 - - 10 5 24 13 W - 0,0
15.07.2018 18:00:00 - - 7 4 22 12 W - 0,0
15.07.2018 17:00:00 27,2 11,7 8 4 25 13 WSW 1009,0 0,0
15.07.2018 16:00:00 27,4 12,2 7 4 29 15 W 1008,9 0,0
15.07.2018 15:00:00 29,0 14,0 4 2 21 12 W 1008,5 0,0
15.07.2018 14:00:00 27,9 14,1 7 4 24 13 WSW 1008,7 -
15.07.2018 13:00:00 25,1 12,6 9 5 20 11 WSW 1009,4 0,0
15.07.2018 12:00:00 26,5 15,5 2 1 15 8 W 1008,9 0,0
15.07.2018 11:00:00 22,9 13,9 5 3 13 7 SW 1009,8 0,0
15.07.2018 10:00:00 22,6 15,2 3 1 11 6 WNW 1009,7 0,0
15.07.2018 09:00:00 19,6 14,4 4 2 11 6 S 1010,3 0,0
15.07.2018 08:00:00 - - 2 1 10 6 WSW - -
15.07.2018 07:00:00 15,8 12,0 5 3 11 6 SW 1011,2 0,0
15.07.2018 06:00:00 - - 4 2 11 6 SW - 0,0
15.07.2018 05:00:00 - - 6 4 16 9 SW - 0,0
15.07.2018 04:00:00 19,0 10,0 6 3 21 11 SW 1010,6 0,0
15.07.2018 03:00:00 19,9 9,8 13 7 19 11 SSW 1010,4 0,0
15.07.2018 02:00:00 21,0 8,7 8 5 15 8 SSW 1010,2 -
15.07.2018 01:00:00 22,0 7,4 5 3 16 9 SW 1010,0 0,0
15.07.2018 00:00:00 23,6 7,7 10 5 16 9 SSW 1009,6 0,0
14.07.2018 23:00:00 23,8 6,5 9 5 13 7 SW 1009,6 0,0
14.07.2018 22:00:00 26,2 6,7 9 5 23 12 SW 1009,2 0,0
14.07.2018 21:00:00 28,1 7,8 13 7 31 17 SW 1008,8 0,0
14.07.2018 20:00:00 29,6 8,7 14 8 30 16 SW 1008,6 -
14.07.2018 19:00:00 30,9 10,3 14 7 37 20 SW 1008,4 0,0
14.07.2018 18:00:00 31,2 10,5 19 10 60 33 SSW 1008,3 0,0
14.07.2018 17:00:00 30,9 10,8 22 12 39 21 SW 1008,3 0,0
14.07.2018 16:00:00 - - 12 6 35 19 SSW - 0,0
14.07.2018 15:00:00 31,6 12,4 18 10 32 17 SSW 1008,2 0,0
14.07.2018 14:00:00 30,3 11,8 20 11 35 19 SSW 1008,4 -
14.07.2018 13:00:00 30,1 13,0 13 7 29 15 S 1008,4 0,0
14.07.2018 12:00:00 28,6 14,0 7 4 24 13 SSW 1008,6 0,0
14.07.2018 11:00:00 26,5 13,3 6 3 13 7 E 1009,1 0,0
14.07.2018 10:00:00 23,5 11,9 5 3 9 5 E 1009,5 0,0
14.07.2018 09:00:00 - - 2 1 6 4 E - 0,0
14.07.2018 08:00:00 18,4 9,9 0 0 4 2 SW 1010,7 -
14.07.2018 07:00:00 15,7 7,7 0 0 5 3 N 1011,3 0,0
14.07.2018 06:00:00 - - 0 0 5 3 N - 0,0
14.07.2018 05:00:00 18,1 7,6 2 1 6 3 NW 1010,8 0,0
14.07.2018 04:00:00 18,9 7,7 4 2 10 5 NNE 1010,6 0,0
14.07.2018 03:00:00 21,0 8,0 7 4 11 6 WSW 1010,2 0,0
14.07.2018 02:00:00 22,1 7,4 8 4 14 7 WSW 1009,9 -
14.07.2018 01:00:00 23,0 7,1 3 2 13 7 NE 1009,8 0,0
14.07.2018 00:00:00 23,5 6,7 6 3 18 10 WSW 1009,7 0,0
13.07.2018 23:00:00 25,4 7,0 10 5 20 11 SSW 1009,3 0,0
13.07.2018 22:00:00 26,8 7,3 13 7 25 14 SSW 1009,1 0,0
13.07.2018 21:00:00 29,4 9,6 17 9 27 15 SW 1008,4 0,0
13.07.2018 20:00:00 - - 13 7 25 14 SSW - -
13.07.2018 19:00:00 31,8 9,3 15 8 27 15 SW 1008,1 0,0
13.07.2018 18:00:00 33,2 11,1 16 9 34 19 SSW 1007,8 0,0
13.07.2018 17:00:00 32,8 11,3 14 8 29 16 SW 1008,0 0,0
13.07.2018 16:00:00 33,2 14,8 12 7 31 17 SW 1007,9 0,0
13.07.2018 15:00:00 32,6 15,2 8 4 27 14 W 1007,9 0,0
13.07.2018 14:00:00 30,9 15,3 10 5 27 14 S 1008,2 -
13.07.2018 13:00:00 29,5 16,0 10 5 19 11 S 1008,4 0,0
13.07.2018 12:00:00 28,4 15,7 9 5 16 9 SW 1008,7 0,0
13.07.2018 11:00:00 27,8 16,4 4 2 13 7 SE 1008,7 0,0
13.07.2018 10:00:00 25,3 15,6 4 2 10 5 ESE 1009,2 0,0
13.07.2018 09:00:00 21,7 13,4 5 3 10 5 E 1009,9 0,0
13.07.2018 08:00:00 - - 4 2 11 6 WSW - -
13.07.2018 07:00:00 - - 3 2 14 8 SSW - 0,0
13.07.2018 06:00:00 19,0 11,3 2 1 9 5 SW 1010,4 0,0
13.07.2018 05:00:00 20,5 11,1 6 3 11 6 WSW 1010,2 0,0
13.07.2018 04:00:00 - - 2 1 13 7 WSW - 0,0
13.07.2018 03:00:00 22,5 10,6 5 3 13 7 W 1009,8 0,0
13.07.2018 02:00:00 23,0 10,0 1 1 13 7 WSW 1009,7 -
13.07.2018 01:00:00 24,5 11,8 1 1 12 7 WNW 1009,4 0,0
13.07.2018 00:00:00 25,6 10,2 4 2 15 8 W 1009,2 0,0
12.07.2018 23:00:00 27,4 10,2 11 6 21 11 SSW 1008,9 0,0
12.07.2018 22:00:00 27,7 9,6 2 1 6 3 W 1008,8 0,0
12.07.2018 21:00:00 29,9 9,9 2 1 16 9 NW 1008,4 0,0
12.07.2018 20:00:00 31,8 11,0 7 4 26 14 WSW 1008,2 -
12.07.2018 19:00:00 - - 5 3 15 8 NE - 0,0
12.07.2018 18:00:00 - - 2 1 15 8 WSW - 0,0
12.07.2018 17:00:00 - - 6 3 20 11 NE - 0,0
12.07.2018 16:00:00 32,0 11,8 8 5 19 10 SSE 1008,1 0,0
12.07.2018 15:00:00 32,1 13,4 4 2 20 11 NNE 1008,0 0,0
12.07.2018 14:00:00 31,9 13,7 5 3 23 12 WSW 1008,1 -
12.07.2018 13:00:00 31,3 15,3 11 6 31 17 SSW 1008,2 0,0
12.07.2018 12:00:00 29,6 16,0 5 3 14 7 S 1008,4 0,0
12.07.2018 11:00:00 28,8 16,4 4 2 12 7 NW 1008,6 0,0
12.07.2018 10:00:00 25,1 16,6 5 3 10 5 ENE 1009,3 0,0
12.07.2018 09:00:00 22,7 16,5 2 1 7 4 ESE 1009,7 0,0
12.07.2018 08:00:00 - - 1 0 3 2 NE - -
12.07.2018 07:00:00 16,0 14,5 0 0 3 2 S 1011,1 0,0
12.07.2018 06:00:00 17,6 15,4 2 1 5 3 NNE 1010,6 0,0
12.07.2018 05:00:00 18,1 15,7 2 1 5 3 NNE 1010,4 0,0
12.07.2018 04:00:00 18,8 16,0 1 1 7 4 E 1010,5 0,0
12.07.2018 03:00:00 19,6 15,6 0 0 8 4 SSW 1010,3 0,0
12.07.2018 02:00:00 20,9 16,0 0 0 5 3 SSW 1010,0 -
12.07.2018 01:00:00 21,6 16,1 0 0 9 5 N 1009,8 0,0
12.07.2018 00:00:00 22,3 16,1 0 0 14 8 N 1009,6 0,0
11.07.2018 23:00:00 23,3 16,1 6 3 17 9 WSW 1009,5 0,0
11.07.2018 22:00:00 24,9 13,8 5 3 16 9 W 1009,4 0,0
11.07.2018 21:00:00 27,0 12,6 6 4 17 9 W 1008,9 0,0
11.07.2018 20:00:00 29,3 11,8 7 4 29 16 WSW 1008,6 -
11.07.2018 19:00:00 31,6 13,9 7 4 36 19 WSW 1008,1 0,0
11.07.2018 18:00:00 32,2 13,9 11 6 33 18 W 1008,1 0,0
11.07.2018 17:00:00 - - 10 5 29 16 WSW - 0,0
11.07.2018 16:00:00 - - 11 6 29 16 WSW - 0,0
11.07.2018 15:00:00 - - 11 6 26 14 WSW - 0,0
11.07.2018 14:00:00 32,0 17,1 8 4 34 18 WSW 1007,9 -
11.07.2018 13:00:00 30,8 16,0 9 5 26 14 SW 1008,3 0,0
11.07.2018 12:00:00 29,3 16,1 13 7 24 13 SW 1008,5 0,0
11.07.2018 11:00:00 27,7 18,2 6 3 14 8 S 1008,7 0,0
11.07.2018 10:00:00 25,0 17,9 3 2 10 5 ENE 1009,2 0,0
11.07.2018 09:00:00 23,5 17,1 3 2 8 4 ESE 1009,5 0,0
11.07.2018 08:00:00 20,0 16,0 1 1 19 10 SE 1010,2 -
11.07.2018 07:00:00 19,3 15,3 12 7 22 12 W 1010,4 0,0
11.07.2018 06:00:00 20,3 16,0 4 2 10 5 WSW 1010,2 0,0
11.07.2018 05:00:00 - - 4 2 7 4 WSW - 0,0
11.07.2018 04:00:00 - - 3 2 11 6 WSW - 0,0
11.07.2018 03:00:00 - - 1 1 10 5 WSW - 0,0
11.07.2018 02:00:00 23,6 11,9 2 1 9 5 WNW 1009,6 -
11.07.2018 01:00:00 24,6 10,9 1 0 15 8 SW 1009,4 0,0
11.07.2018 00:00:00 25,8 11,2 9 5 19 10 W 1009,3 0,0
10.07.2018 23:00:00 27,0 11,4 8 5 14 8 W 1008,9 0,0
10.07.2018 22:00:00 28,4 12,7 4 2 13 7 WSW 1008,8 0,0
10.07.2018 21:00:00 30,5 15,0 5 3 20 11 W 1008,3 0,0
10.07.2018 20:00:00 33,1 15,2 7 4 18 10 W 1007,9 -
10.07.2018 19:00:00 35,2 15,5 9 5 23 12 W 1007,5 0,0
10.07.2018 18:00:00 35,9 15,1 7 4 21 11 WSW 1007,4 0,0

tt = temperature
td = dewpoint
ff = wind speed
fx = gusts
dd = wind direction
ppp = reduced air pressure
rr = precipitation

Next stations